»·PEaware :: N9085C KGLD-KAPA

N9085C :: KGLD-KAPA

FLIGHT INFORMATION

Flight Status: Arrived
Operator: Privately registered:
United States
More flights under this callsign
Pilot: Jari J. (4222)
Aircraft: EMBRAER ERJ-135/140
(E135)
More flights by this aircraft type
Origin: KGLD Renner/Goodland Mun
United States
Destination: KAPA Centennial
United States
More flights between these airports :: More routes between these airports
Route: TXC FQF DCT
File this flight plan on PilotEdge
Remarks:
Altitude:
(Current/Filed)
240ft
Speed:
(Current/Filed)
370kts
Departed: 06-Dec-14 05:13 AM
Arrived: 06-Dec-14 05:55 AM
Distance/Time
Traveled:
146nm/0:41
Distance/Time
To Go:
Arrived

Flight Plot

Page will automatically refresh every two minutes.


Map Options




Map Legend


Flown Route
Filed Route
Departure Airport
Arrival Airport
Navaid (VOR, NDB)
Fix

Horizontal Profiles

Position Reports

Time Latitude Longitude Heading Altitude Ground
Speed
06-Dec-14 04:46 39.372638 -101.704677 269 3661ft 0kts
06-Dec-14 04:47 39.372638 -101.704677 269 3661ft 0kts
06-Dec-14 04:48 39.372638 -101.704677 269 3661ft 0kts
06-Dec-14 04:49 39.372638 -101.704678 269 3661ft 0kts
06-Dec-14 04:50 39.372638 -101.704678 269 3661ft 0kts
06-Dec-14 04:51 39.372638 -101.704678 269 3661ft 0kts
06-Dec-14 04:52 39.372638 -101.704679 269 3661ft 0kts
06-Dec-14 04:53 39.372638 -101.704679 269 3661ft 0kts
06-Dec-14 04:54 39.372638 -101.704679 269 3661ft 0kts
06-Dec-14 04:55 39.372638 -101.704680 269 3661ft 0kts
06-Dec-14 04:56 39.372638 -101.704680 269 3661ft 0kts
06-Dec-14 04:57 39.372638 -101.704681 269 3661ft 0kts
06-Dec-14 04:58 39.372638 -101.704681 269 3661ft 0kts
06-Dec-14 04:59 39.372638 -101.704681 269 3661ft 0kts
06-Dec-14 05:00 39.372638 -101.704682 269 3661ft 0kts
06-Dec-14 05:01 39.372638 -101.704682 269 3661ft 0kts
06-Dec-14 05:02 39.372523 -101.704823 162 3661ft 4kts
06-Dec-14 05:03 39.372199 -101.703826 135 3661ft 3kts
06-Dec-14 05:04 39.370367 -101.701436 134 3661ft 9kts
06-Dec-14 05:05 39.368751 -101.699317 133 3661ft 7kts
06-Dec-14 05:06 39.367152 -101.697224 133 3661ft 9kts
06-Dec-14 05:07 39.364950 -101.694326 134 3661ft 12kts
06-Dec-14 05:08 39.363691 -101.691875 41 3661ft 1kts
06-Dec-14 05:09 39.364955 -101.692234 313 3661ft 36kts
06-Dec-14 05:10 39.389511 -101.712962 343 4849ft 140kts
06-Dec-14 05:11 39.428524 -101.745270 327 6885ft 201kts
06-Dec-14 05:12 39.476650 -101.796196 318 9163ft 229kts
06-Dec-14 05:13 39.528228 -101.856603 318 11728ft 268kts
06-Dec-14 05:14 39.586888 -101.925549 316 14276ft 297kts
06-Dec-14 05:15 39.649791 -101.999651 315 16800ft 309kts
06-Dec-14 05:16 39.713353 -102.074701 313 19289ft 307kts
06-Dec-14 05:17 39.775672 -102.148466 312 21777ft 296kts
06-Dec-14 05:18 39.841858 -102.227156 313 21998ft 347kts
06-Dec-14 05:19 39.914350 -102.313388 313 21987ft 351kts
06-Dec-14 05:20 39.986716 -102.399801 313 21987ft 353kts
06-Dec-14 05:21 40.057983 -102.485143 314 21983ft 344kts
06-Dec-14 05:22 40.128030 -102.569287 313 21975ft 339kts
06-Dec-14 05:23 40.197307 -102.652752 313 21963ft 337kts
06-Dec-14 05:24 40.267545 -102.737632 313 21954ft 345kts
06-Dec-14 05:25 40.338318 -102.823400 313 21946ft 346kts
06-Dec-14 05:26 40.409223 -102.909590 313 21940ft 347kts
06-Dec-14 05:27 40.479917 -102.995782 313 21934ft 347kts
06-Dec-14 05:28 40.550851 -103.082530 313 21929ft 347kts
06-Dec-14 05:29 40.594367 -103.190164 272 21930ft 341kts
06-Dec-14 05:30 40.556151 -103.302724 233 21931ft 351kts
06-Dec-14 05:31 40.493455 -103.401016 233 21925ft 351kts
06-Dec-14 05:32 40.430045 -103.499207 233 21919ft 352kts
06-Dec-14 05:33 40.366485 -103.597217 233 21914ft 352kts
06-Dec-14 05:34 40.302782 -103.695125 233 21911ft 352kts
06-Dec-14 05:35 40.239568 -103.792844 232 21910ft 352kts
06-Dec-14 05:36 40.175146 -103.890339 233 21909ft 352kts
06-Dec-14 05:37 40.111162 -103.987751 232 21908ft 352kts
06-Dec-14 05:38 40.047383 -104.084523 231 21906ft 351kts
06-Dec-14 05:39 39.984889 -104.178998 231 20794ft 318kts
06-Dec-14 05:40 39.929399 -104.262731 230 18577ft 294kts
06-Dec-14 05:41 39.885399 -104.328960 230 16787ft 284kts
06-Dec-14 05:42 39.826064 -104.418009 229 14475ft 275kts
06-Dec-14 05:43 39.776458 -104.492256 228 12607ft 267kts
06-Dec-14 05:44 39.736288 -104.552241 228 11289ft 260kts
06-Dec-14 05:45 39.693149 -104.626152 249 9723ft 259kts
06-Dec-14 05:46 39.689815 -104.717274 266 8217ft 258kts
06-Dec-14 05:47 39.688204 -104.809962 257 7067ft 247kts
06-Dec-14 05:48 39.637670 -104.853146 177 6996ft 216kts
06-Dec-14 05:49 39.606732 -104.852199 178 6367ft 162kts
06-Dec-14 05:50 39.629612 -104.853151 176 6666ft 144kts
06-Dec-14 05:51 39.596090 -104.852023 177 6139ft 103kts
06-Dec-14 05:52 39.579005 -104.851018 85 5888ft 1kts
06-Dec-14 05:53 39.579060 -104.849270 88 5888ft 2kts
06-Dec-14 05:54 39.579537 -104.849232 349 5888ft 9kts
06-Dec-14 05:55 39.579199 -104.849836 175 5888ft 10kts
06-Dec-14 05:56 39.579796 -104.848417 86 5888ft 8kts
06-Dec-14 05:57 39.580284 -104.847972 358 5888ft 0kts
06-Dec-14 05:58 39.580284 -104.847972 358 5888ft 0kts
06-Dec-14 05:59 39.580284 -104.847972 358 5888ft 0kts

Navigation Log

Ident Type
Flight plan parsing failed, navigation log unavailable